Time;durP1;ratioP1;P1;durP2;ratioP2;P2;SDS_P1;SDS_P2;PMS_P1;PMS_P2;Temp;Humidity;BMP_temperature;BMP_pressure;BME280_temperature;BME280_humidity;BME280_pressure;Samples;Min_cycle;Max_cycle;Signal;HPM_P1;HPM_P2
2023/08/25 00:01:18;;;;;;;17.77;16.90;;;22.50;99.90;;;;;;4933660;29;20450;-69
2023/08/25 00:03:46;;;;;;;17.10;16.20;;;22.50;99.90;;;;;;4933974;29;20482;-69
2023/08/25 00:06:13;;;;;;;18.87;17.90;;;22.50;99.90;;;;;;4934098;29;20453;-69
2023/08/25 00:08:39;;;;;;;18.97;18.03;;;22.50;99.90;;;;;;4933854;29;20526;-69
2023/08/25 00:11:06;;;;;;;18.43;17.53;;;22.50;99.90;;;;;;4933614;29;20453;-69
2023/08/25 00:13:35;;;;;;;18.73;17.80;;;22.50;99.90;;;;;;4933637;29;20441;-69
2023/08/25 00:16:02;;;;;;;18.43;17.57;;;22.50;99.90;;;;;;4933748;29;21016;-69
2023/08/25 00:18:29;;;;;;;16.60;16.00;;;22.50;99.90;;;;;;4933456;29;20489;-70
2023/08/25 00:20:57;;;;;;;16.50;15.90;;;22.50;99.90;;;;;;4933547;29;20450;-70
2023/08/25 00:23:24;;;;;;;16.70;16.00;;;22.50;99.90;;;;;;4933579;29;20462;-70
2023/08/25 00:25:53;;;;;;;18.33;16.83;;;22.50;99.90;;;;;;4933712;29;20457;-70
2023/08/25 00:28:20;;;;;;;16.73;15.93;;;22.50;99.90;;;;;;4933589;29;20445;-70
2023/08/25 00:30:47;;;;;;;17.73;16.80;;;22.50;99.90;;;;;;4933407;29;20473;-70
2023/08/25 00:33:14;;;;;;;17.83;16.80;;;22.50;99.90;;;;;;4933633;29;20454;-70
2023/08/25 00:35:41;;;;;;;16.30;15.50;;;22.60;99.90;;;;;;4933671;29;20456;-70
2023/08/25 00:38:10;;;;;;;17.87;16.97;;;22.60;99.90;;;;;;4933447;29;20453;-70
2023/08/25 00:40:36;;;;;;;17.90;16.90;;;22.60;99.90;;;;;;4933364;29;20824;-70
2023/08/25 00:43:04;;;;;;;17.87;16.97;;;22.70;99.90;;;;;;4933439;29;20821;-70
2023/08/25 00:45:34;;;;;;;18.67;17.80;;;22.80;99.90;;;;;;4933492;29;20513;-69
2023/08/25 00:48:00;;;;;;;16.73;16.03;;;22.80;99.90;;;;;;4933534;29;20461;-70
2023/08/25 00:50:29;;;;;;;16.40;15.80;;;22.80;99.90;;;;;;4933539;29;20465;-69
2023/08/25 00:52:57;;;;;;;17.43;16.70;;;22.80;99.90;;;;;;4933297;29;20477;-69
2023/08/25 00:55:25;;;;;;;15.63;15.03;;;22.80;99.90;;;;;;4933338;29;20449;-69
2023/08/25 00:57:53;;;;;;;16.53;15.73;;;22.70;99.90;;;;;;4933235;29;21031;-69
2023/08/25 01:00:20;;;;;;;16.27;15.50;;;22.70;99.90;;;;;;4933183;29;20926;-69
2023/08/25 01:02:47;;;;;;;16.63;15.83;;;22.70;99.90;;;;;;4933214;29;20453;-69
2023/08/25 01:05:13;;;;;;;17.90;17.00;;;22.80;99.90;;;;;;4933359;29;20493;-69
2023/08/25 01:07:43;;;;;;;19.40;18.40;;;22.80;99.90;;;;;;4933191;29;20449;-69
2023/08/25 01:13:49;;;;;;;18.13;17.30;;;22.70;99.90;;;;;;4933168;29;20456;-70
2023/08/25 01:16:23;;;;;;;20.10;19.10;;;22.70;99.90;;;;;;4933150;29;20552;-70
2023/08/25 01:18:50;;;;;;;19.77;18.47;;;22.60;99.90;;;;;;4932858;29;20499;-70
2023/08/25 01:21:17;;;;;;;22.33;20.90;;;22.60;99.90;;;;;;4933150;29;20952;-70
2023/08/25 01:23:51;;;;;;;21.20;19.87;;;22.60;99.90;;;;;;4933231;29;20504;-71
2023/08/25 01:26:20;;;;;;;22.40;20.70;;;22.60;99.90;;;;;;4933138;29;20445;-69
2023/08/25 01:28:50;;;;;;;21.63;20.47;;;22.60;99.90;;;;;;4933084;29;20457;-69
2023/08/25 01:31:19;;;;;;;22.30;21.03;;;22.60;99.90;;;;;;4933003;29;20482;-70
2023/08/25 01:33:46;;;;;;;19.50;18.57;;;22.60;99.90;;;;;;4936513;29;20457;-70
2023/08/25 01:36:20;;;;;;;20.30;19.03;;;22.60;99.90;;;;;;4936629;29;20449;-69
2023/08/25 01:38:52;;;;;;;20.40;19.47;;;22.60;99.90;;;;;;4936391;29;20488;-70
2023/08/25 01:41:26;;;;;;;19.87;18.67;;;22.60;99.90;;;;;;4936318;29;20445;-69
2023/08/25 01:43:54;;;;;;;20.20;18.83;;;22.60;99.90;;;;;;4936313;29;20452;-69
2023/08/25 01:46:22;;;;;;;19.10;18.10;;;22.60;99.90;;;;;;4936272;29;20453;-69
2023/08/25 01:48:52;;;;;;;20.47;19.00;;;22.60;99.90;;;;;;4936217;29;20437;-69
2023/08/25 01:51:19;;;;;;;21.60;20.20;;;22.60;99.90;;;;;;4936344;29;20453;-69
2023/08/25 01:53:47;;;;;;;18.57;17.60;;;22.50;99.90;;;;;;4936205;29;20465;-69
2023/08/25 01:56:14;;;;;;;18.43;17.50;;;22.50;99.90;;;;;;4936296;29;20449;-69
2023/08/25 01:58:42;;;;;;;18.67;17.77;;;22.30;99.90;;;;;;4936179;29;20489;-70
2023/08/25 02:01:09;;;;;;;19.10;18.03;;;22.30;99.90;;;;;;4936061;29;20453;-70
2023/08/25 02:03:35;;;;;;;19.40;18.20;;;22.30;99.90;;;;;;4935967;29;20457;-70
2023/08/25 02:06:02;;;;;;;18.33;17.33;;;22.30;99.90;;;;;;4935882;29;20489;-70
2023/08/25 02:08:29;;;;;;;17.47;16.57;;;22.30;99.90;;;;;;4935945;29;20450;-70
2023/08/25 02:10:55;;;;;;;17.20;16.40;;;22.40;99.90;;;;;;4936008;29;20457;-70
2023/08/25 02:13:22;;;;;;;19.03;17.93;;;22.50;99.90;;;;;;4935867;29;20452;-70
2023/08/25 02:15:52;;;;;;;18.10;17.30;;;22.60;99.90;;;;;;4935738;29;20450;-69
2023/08/25 02:18:19;;;;;;;19.07;18.17;;;22.60;99.90;;;;;;4935748;29;20481;-69
2023/08/25 02:20:45;;;;;;;17.70;16.60;;;22.60;99.90;;;;;;4935787;29;20525;-69
2023/08/25 02:23:12;;;;;;;19.17;18.07;;;22.50;99.90;;;;;;4935800;29;20456;-70
2023/08/25 02:25:39;;;;;;;20.57;19.20;;;22.50;99.90;;;;;;4935695;29;20452;-70
2023/08/25 02:28:06;;;;;;;17.47;16.50;;;22.50;99.90;;;;;;4935344;29;20972;-70
2023/08/25 02:30:33;;;;;;;17.27;16.37;;;22.40;99.90;;;;;;4935263;29;20517;-70
2023/08/25 02:33:01;;;;;;;18.10;16.93;;;22.50;99.90;;;;;;4935512;29;20484;-70
2023/08/25 02:35:28;;;;;;;18.87;17.87;;;22.40;99.90;;;;;;4935666;29;20457;-69
2023/08/25 02:37:59;;;;;;;19.20;18.30;;;22.40;99.90;;;;;;4935312;29;20811;-69
2023/08/25 02:40:26;;;;;;;17.50;16.80;;;22.30;99.90;;;;;;4935327;29;20866;-70
2023/08/25 02:42:55;;;;;;;17.17;16.30;;;22.30;99.90;;;;;;4934628;29;20458;-70
2023/08/25 02:45:23;;;;;;;18.13;17.00;;;22.30;99.90;;;;;;4934876;29;20453;-70
2023/08/25 02:47:50;;;;;;;18.20;17.33;;;22.30;99.90;;;;;;4935097;29;20484;-69
2023/08/25 02:50:18;;;;;;;17.20;16.50;;;22.30;99.90;;;;;;4935020;29;20445;-69
2023/08/25 02:52:45;;;;;;;16.63;15.97;;;22.20;99.90;;;;;;4935328;29;20477;-69
2023/08/25 02:55:14;;;;;;;17.37;16.43;;;22.20;99.90;;;;;;4935234;29;20450;-70
2023/08/25 02:57:41;;;;;;;19.50;18.37;;;22.10;99.90;;;;;;4935126;29;20941;-69
2023/08/25 03:00:09;;;;;;;19.80;18.73;;;22.10;99.90;;;;;;4934880;29;20497;-70
2023/08/25 03:02:36;;;;;;;20.77;19.57;;;22.00;99.90;;;;;;4934757;29;20457;-70
2023/08/25 03:05:03;;;;;;;22.47;21.20;;;22.00;99.90;;;;;;4934791;29;20956;-70
2023/08/25 03:07:32;;;;;;;21.77;20.77;;;21.90;99.90;;;;;;4935154;29;20512;-69
2023/08/25 03:09:59;;;;;;;21.50;20.10;;;21.90;99.90;;;;;;4935036;29;20449;-70
2023/08/25 03:12:26;;;;;;;20.83;19.70;;;21.90;99.90;;;;;;4938468;29;20484;-71
2023/08/25 03:14:54;;;;;;;19.90;18.80;;;21.90;99.90;;;;;;4936647;28;20505;-71
2023/08/25 03:17:21;;;;;;;19.47;18.50;;;22.00;99.90;;;;;;4933834;29;20461;-70
2023/08/25 03:19:48;;;;;;;20.00;18.90;;;22.00;99.90;;;;;;4933839;29;20837;-70
2023/08/25 03:22:15;;;;;;;19.53;18.43;;;22.10;99.90;;;;;;4928914;29;20462;-71
2023/08/25 03:24:43;;;;;;;18.90;17.90;;;22.10;99.90;;;;;;4936699;29;20457;-71
2023/08/25 03:27:10;;;;;;;19.07;17.97;;;22.10;99.90;;;;;;4933735;29;20952;-70
2023/08/25 03:29:38;;;;;;;18.27;17.27;;;22.10;99.90;;;;;;4933816;29;20575;-70
2023/08/25 03:32:05;;;;;;;16.57;15.70;;;22.20;99.90;;;;;;4933733;29;20469;-70
2023/08/25 03:34:32;;;;;;;16.37;15.67;;;22.20;99.90;;;;;;4933682;29;20449;-69
2023/08/25 03:36:58;;;;;;;17.73;16.93;;;22.20;99.90;;;;;;4933785;29;20441;-71
2023/08/25 03:39:26;;;;;;;18.27;17.40;;;22.30;99.90;;;;;;4933757;29;20488;-71
2023/08/25 03:41:54;;;;;;;18.40;17.27;;;22.20;99.90;;;;;;4933570;29;20453;-70
2023/08/25 03:44:21;;;;;;;16.50;15.80;;;22.30;99.90;;;;;;4935197;29;20999;-70
2023/08/25 03:46:47;;;;;;;17.40;16.30;;;22.30;99.90;;;;;;4934858;29;20460;-71
2023/08/25 03:49:14;;;;;;;16.43;15.80;;;22.20;99.90;;;;;;4933562;29;20943;-71
2023/08/25 03:51:41;;;;;;;17.00;16.13;;;22.20;99.90;;;;;;4935456;29;20454;-70
2023/08/25 03:54:07;;;;;;;17.83;16.73;;;22.20;99.90;;;;;;4934898;29;20452;-71
2023/08/25 03:56:34;;;;;;;17.10;16.17;;;22.20;99.90;;;;;;4933230;29;20824;-69
2023/08/25 03:59:03;;;;;;;17.50;16.70;;;22.20;99.90;;;;;;4933234;29;20446;-70
2023/08/25 04:01:29;;;;;;;16.33;15.53;;;22.10;99.90;;;;;;4935239;29;20509;-70
2023/08/25 04:03:56;;;;;;;20.10;18.70;;;22.20;99.90;;;;;;4932602;28;20446;-70
2023/08/25 04:06:23;;;;;;;17.37;16.67;;;22.20;99.90;;;;;;4933244;29;20809;-70
2023/08/25 04:08:49;;;;;;;18.07;17.17;;;22.10;99.90;;;;;;4933132;29;20461;-69
2023/08/25 04:11:16;;;;;;;20.50;19.27;;;22.10;99.90;;;;;;4930406;29;20437;-69
2023/08/25 04:13:43;;;;;;;20.90;19.87;;;22.00;99.90;;;;;;4933404;29;20449;-69
2023/08/25 04:16:11;;;;;;;21.47;20.40;;;21.90;99.90;;;;;;4932887;29;20446;-69
2023/08/25 04:18:37;;;;;;;21.27;20.07;;;21.90;99.90;;;;;;4930436;29;20469;-69
2023/08/25 04:21:04;;;;;;;22.63;21.20;;;21.80;99.90;;;;;;4932778;29;21007;-69
2023/08/25 04:23:31;;;;;;;19.80;18.80;;;21.70;99.90;;;;;;4932983;29;20449;-69
2023/08/25 04:25:58;;;;;;;21.23;20.03;;;21.60;99.90;;;;;;4932944;29;20445;-69
2023/08/25 04:28:25;;;;;;;20.23;19.27;;;21.60;99.90;;;;;;4933256;29;20457;-69
2023/08/25 04:30:53;;;;;;;19.90;18.83;;;21.60;99.90;;;;;;4935583;29;20469;-69
2023/08/25 04:33:21;;;;;;;19.13;17.97;;;21.60;99.90;;;;;;4934287;29;20540;-69
2023/08/25 04:35:48;;;;;;;21.30;20.10;;;21.60;99.90;;;;;;4933254;29;20462;-69
2023/08/25 04:38:15;;;;;;;18.87;17.83;;;21.70;99.90;;;;;;4935246;29;20454;-69
2023/08/25 04:40:41;;;;;;;18.40;17.60;;;21.80;99.90;;;;;;4935341;29;20485;-69
2023/08/25 04:43:08;;;;;;;18.17;17.37;;;21.80;99.90;;;;;;4935066;29;20460;-69
2023/08/25 04:45:35;;;;;;;18.33;17.13;;;21.90;99.90;;;;;;4935893;29;20497;-70
2023/08/25 04:48:02;;;;;;;16.57;15.77;;;21.90;99.90;;;;;;4936583;29;20467;-70
2023/08/25 04:50:30;;;;;;;17.40;16.43;;;22.00;99.90;;;;;;4934697;28;20948;-70
2023/08/25 04:52:56;;;;;;;18.63;17.60;;;22.00;99.90;;;;;;4933994;29;20457;-71
2023/08/25 04:55:23;;;;;;;19.70;18.60;;;22.00;99.90;;;;;;4937025;28;20944;-70
2023/08/25 04:57:50;;;;;;;18.90;17.80;;;22.00;99.90;;;;;;4933029;29;20458;-70
2023/08/25 05:00:17;;;;;;;21.40;19.47;;;22.00;99.90;;;;;;4932962;29;20497;-72
2023/08/25 05:02:44;;;;;;;20.30;18.90;;;22.00;99.90;;;;;;4929767;29;20449;-72
2023/08/25 05:05:11;;;;;;;20.63;19.37;;;22.00;99.90;;;;;;4933345;29;20454;-72
2023/08/25 05:07:39;;;;;;;20.90;19.80;;;22.00;99.90;;;;;;4935447;29;20461;-72
2023/08/25 05:10:07;;;;;;;20.77;19.57;;;22.00;99.90;;;;;;4937652;28;20446;-72
2023/08/25 05:12:34;;;;;;;19.87;18.67;;;22.00;99.90;;;;;;4943107;28;20817;-71
2023/08/25 05:15:00;;;;;;;20.00;18.83;;;22.00;99.90;;;;;;4937959;28;20971;-70
2023/08/25 05:17:27;;;;;;;19.73;18.70;;;22.00;99.90;;;;;;4939595;29;20480;-72
2023/08/25 05:19:54;;;;;;;22.60;21.10;;;22.00;99.90;;;;;;4936528;29;20499;-71
2023/08/25 05:22:20;;;;;;;21.17;19.77;;;22.00;99.90;;;;;;4938691;29;20826;-72
2023/08/25 05:24:49;;;;;;;22.03;20.60;;;22.10;99.90;;;;;;4938026;28;20501;-73
2023/08/25 05:27:15;;;;;;;22.13;20.43;;;22.30;99.90;;;;;;4935140;29;20834;-71
2023/08/25 05:29:42;;;;;;;21.10;19.67;;;22.60;99.90;;;;;;4936160;29;20449;-71
2023/08/25 05:32:09;;;;;;;21.43;19.93;;;22.90;99.90;;;;;;4939642;28;20485;-72
2023/08/25 05:34:35;;;;;;;19.77;18.73;;;23.20;99.90;;;;;;4935773;29;20484;-72
2023/08/25 05:37:02;;;;;;;22.00;20.67;;;23.50;99.90;;;;;;4936475;29;20449;-71
2023/08/25 05:39:29;;;;;;;19.27;18.17;;;23.90;99.90;;;;;;4947300;28;20515;-72
2023/08/25 05:41:57;;;;;;;19.37;17.90;;;24.50;99.90;;;;;;4946292;28;20831;-72
2023/08/25 05:44:24;;;;;;;18.57;17.40;;;25.10;99.90;;;;;;4945493;28;20459;-72
2023/08/25 05:46:51;;;;;;;18.13;16.83;;;25.70;99.90;;;;;;4955274;28;20804;-72
2023/08/25 05:49:17;;;;;;;19.20;18.07;;;25.90;99.90;;;;;;4955114;28;20943;-72
2023/08/25 05:51:45;;;;;;;20.20;19.00;;;25.90;99.90;;;;;;4955335;28;20450;-72
2023/08/25 05:54:12;;;;;;;19.33;18.23;;;25.90;99.90;;;;;;4955193;28;20453;-72
2023/08/25 05:56:39;;;;;;;19.67;18.43;;;26.00;99.90;;;;;;4955060;28;20445;-73
2023/08/25 05:59:07;;;;;;;20.03;18.83;;;26.20;99.90;;;;;;4955215;28;20805;-73
2023/08/25 06:01:33;;;;;;;19.83;18.40;;;26.40;99.90;;;;;;4954920;28;20488;-73
2023/08/25 06:04:00;;;;;;;17.87;16.77;;;26.40;99.90;;;;;;4955121;28;20452;-73
2023/08/25 06:06:27;;;;;;;19.33;18.23;;;26.40;99.90;;;;;;4955084;28;20451;-72
2023/08/25 06:08:54;;;;;;;19.20;17.90;;;26.40;99.90;;;;;;4949925;28;21005;-73
2023/08/25 06:11:21;;;;;;;19.00;18.10;;;26.20;99.90;;;;;;4954780;28;21152;-73
2023/08/25 06:13:47;;;;;;;18.60;17.50;;;26.00;99.90;;;;;;4954988;28;20469;-73
2023/08/25 06:16:15;;;;;;;19.67;18.07;;;26.20;99.90;;;;;;4954856;28;20449;-72
2023/08/25 06:18:43;;;;;;;19.17;18.17;;;26.10;99.90;;;;;;4954319;28;20457;-72
2023/08/25 06:21:10;;;;;;;19.80;18.60;;;25.90;99.90;;;;;;4954171;28;21044;-73
2023/08/25 06:23:36;;;;;;;19.53;18.53;;;25.40;99.90;;;;;;4954422;28;20464;-73
2023/08/25 06:26:03;;;;;;;18.33;17.00;;;25.00;99.90;;;;;;4954528;28;20449;-72
2023/08/25 06:28:30;;;;;;;17.17;16.37;;;24.90;99.90;;;;;;4954523;28;20467;-73
2023/08/25 06:30:57;;;;;;;18.23;17.13;;;24.70;99.90;;;;;;4954309;28;20476;-72
2023/08/25 06:33:29;;;;;;;18.17;17.17;;;24.60;99.90;;;;;;4955152;28;20818;-72
2023/08/25 06:35:56;;;;;;;18.40;17.60;;;24.50;99.90;;;;;;4954900;28;20971;-73
2023/08/25 06:38:23;;;;;;;19.57;18.40;;;24.40;99.90;;;;;;4955164;28;20515;-72
2023/08/25 06:40:50;;;;;;;23.80;22.30;;;24.20;99.90;;;;;;4955428;28;21068;-72
2023/08/25 06:43:17;;;;;;;22.20;21.20;;;23.80;99.90;;;;;;4945194;28;20497;-72
2023/08/25 06:45:44;;;;;;;21.30;20.10;;;23.40;99.90;;;;;;4938281;28;20457;-73
2023/08/25 06:48:11;;;;;;;19.67;18.67;;;23.20;99.90;;;;;;4938457;28;20445;-72
2023/08/25 06:50:39;;;;;;;19.23;18.23;;;23.00;99.90;;;;;;4936787;28;20457;-72
2023/08/25 06:53:07;;;;;;;18.63;17.47;;;22.90;99.90;;;;;;4935805;29;20847;-73
2023/08/25 06:55:34;;;;;;;21.13;19.73;;;23.00;99.90;;;;;;4932347;29;20472;-73
2023/08/25 06:58:01;;;;;;;20.63;19.50;;;23.10;99.90;;;;;;4936700;29;20446;-72
2023/08/25 07:00:28;;;;;;;20.73;19.63;;;23.10;99.90;;;;;;4936594;29;20493;-72
2023/08/25 07:02:54;;;;;;;18.43;17.47;;;23.10;99.90;;;;;;4938943;29;20468;-72
2023/08/25 07:05:23;;;;;;;20.87;19.93;;;22.90;99.90;;;;;;4937174;29;20452;-71
2023/08/25 07:07:51;;;;;;;24.90;23.50;;;22.80;99.90;;;;;;4935978;29;20446;-73
2023/08/25 07:10:18;;;;;;;22.60;21.60;;;22.60;99.90;;;;;;4932413;28;20505;-74
2023/08/25 07:12:45;;;;;;;27.27;25.67;;;22.40;99.90;;;;;;4938886;29;20468;-71
2023/08/25 07:15:12;;;;;;;47.47;44.17;;;22.20;99.90;;;;;;4934978;28;20449;-71
2023/08/25 07:17:39;;;;;;;51.10;47.80;;;22.10;99.90;;;;;;4936140;28;20482;-71
2023/08/25 07:20:08;;;;;;;51.07;47.57;;;21.80;99.90;;;;;;4939589;28;20489;-73
2023/08/25 07:22:35;;;;;;;47.90;44.70;;;21.50;99.90;;;;;;4932436;29;20453;-73
2023/08/25 07:25:03;;;;;;;55.53;52.20;;;21.40;99.90;;;;;;4934327;29;20449;-73
2023/08/25 07:27:30;;;;;;;50.43;46.97;;;21.30;99.90;;;;;;4936421;29;20452;-72
2023/08/25 07:29:57;;;;;;;50.00;46.70;;;21.20;99.90;;;;;;4938472;28;20450;-72
2023/08/25 07:32:24;;;;;;;46.43;43.23;;;21.20;99.90;;;;;;4937720;28;20449;-73
2023/08/25 07:34:50;;;;;;;56.33;52.63;;;21.20;99.90;;;;;;4934979;28;20987;-72
2023/08/25 07:37:17;;;;;;;58.77;54.87;;;21.20;99.90;;;;;;4936560;29;20457;-73
2023/08/25 07:39:50;;;;;;;54.07;50.67;;;21.20;99.90;;;;;;4936058;29;20464;-73
2023/08/25 07:42:18;;;;;;;55.33;51.20;;;21.20;99.90;;;;;;4935525;28;20500;-73
2023/08/25 07:44:46;;;;;;;56.23;52.57;;;21.30;99.90;;;;;;4937852;29;20456;-72
2023/08/25 07:47:13;;;;;;;56.23;52.63;;;21.20;99.90;;;;;;4935629;29;20450;-72
2023/08/25 07:49:40;;;;;;;61.57;57.50;;;21.10;99.90;;;;;;4938072;28;20458;-72
2023/08/25 07:52:06;;;;;;;52.10;48.80;;;21.00;99.90;;;;;;4937662;29;20446;-70
2023/08/25 07:54:33;;;;;;;57.50;54.00;;;21.00;99.90;;;;;;4933269;29;20457;-72
2023/08/25 07:57:00;;;;;;;55.03;51.17;;;21.00;99.90;;;;;;4933558;29;20446;-71
2023/08/25 07:59:28;;;;;;;53.33;49.37;;;20.90;99.90;;;;;;4933558;29;20883;-72
2023/08/25 08:01:55;;;;;;;54.50;51.03;;;20.80;99.90;;;;;;4929326;29;20500;-72
2023/08/25 08:04:21;;;;;;;52.63;49.33;;;20.80;99.90;;;;;;4934718;29;20924;-72
2023/08/25 08:06:49;;;;;;;57.93;54.53;;;20.80;99.90;;;;;;4931344;28;20454;-72
2023/08/25 08:09:17;;;;;;;60.93;57.13;;;20.90;99.90;;;;;;4925983;29;20533;-72
2023/08/25 08:11:44;;;;;;;48.73;45.63;;;20.80;99.90;;;;;;4924822;29;20471;-72
2023/08/25 08:14:10;;;;;;;49.13;45.83;;;20.70;99.90;;;;;;4923404;29;20453;-73
2023/08/25 08:16:39;;;;;;;52.20;48.70;;;20.70;99.90;;;;;;4922781;29;20466;-72
2023/08/25 08:19:06;;;;;;;51.53;48.10;;;20.70;99.90;;;;;;4933232;29;20454;-71
2023/08/25 08:21:32;;;;;;;50.50;47.30;;;20.70;99.90;;;;;;4933326;29;20489;-72
2023/08/25 08:24:00;;;;;;;47.93;44.83;;;20.60;99.90;;;;;;4933701;29;20883;-70
2023/08/25 08:26:27;;;;;;;51.40;48.40;;;20.50;99.90;;;;;;4933535;29;20455;-72
2023/08/25 08:28:53;;;;;;;49.23;45.87;;;20.50;99.90;;;;;;4933391;29;20456;-72
2023/08/25 08:31:20;;;;;;;51.60;48.47;;;20.40;99.90;;;;;;4933162;29;20474;-72
2023/08/25 08:33:48;;;;;;;51.47;48.33;;;20.40;99.90;;;;;;4933167;29;20460;-71
2023/08/25 08:36:16;;;;;;;48.93;46.23;;;20.40;99.90;;;;;;4933524;29;20457;-72
2023/08/25 08:38:43;;;;;;;44.53;41.80;;;20.40;99.90;;;;;;4932072;29;20588;-71
2023/08/25 08:41:10;;;;;;;50.67;47.57;;;20.30;99.90;;;;;;4928768;29;20492;-71
2023/08/25 08:43:41;;;;;;;45.83;42.93;;;20.30;99.90;;;;;;4926938;29;20454;-72
2023/08/25 08:46:08;;;;;;;48.40;45.63;;;20.30;99.90;;;;;;4926319;29;20455;-71
2023/08/25 08:48:36;;;;;;;43.27;40.80;;;20.30;99.90;;;;;;4927887;29;20442;-71
2023/08/25 08:51:06;;;;;;;46.23;43.57;;;20.40;99.90;;;;;;4927642;29;20439;-71
2023/08/25 08:53:33;;;;;;;51.00;48.00;;;20.30;99.90;;;;;;4927903;29;20454;-71
2023/08/25 08:56:01;;;;;;;50.90;47.80;;;20.50;99.90;;;;;;4927196;29;20446;-71
2023/08/25 08:58:28;;;;;;;54.27;51.27;;;20.60;99.90;;;;;;4926274;29;20887;-70
2023/08/25 09:00:56;;;;;;;49.37;46.53;;;20.60;99.90;;;;;;4927775;29;20492;-71
2023/08/25 09:03:28;;;;;;;53.83;50.77;;;20.60;99.90;;;;;;4927264;29;20458;-71
2023/08/25 09:05:57;;;;;;;48.50;45.60;;;20.70;99.90;;;;;;4926255;29;20522;-71
2023/08/25 09:08:27;;;;;;;51.00;48.00;;;20.70;99.90;;;;;;4926218;29;21019;-70
2023/08/25 09:10:54;;;;;;;47.00;44.00;;;20.70;99.90;;;;;;4925635;29;20435;-70
2023/08/25 09:13:21;;;;;;;47.03;44.03;;;20.80;99.90;;;;;;4923105;29;20441;-69
2023/08/25 09:15:53;;;;;;;51.40;48.40;;;20.90;99.90;;;;;;4939634;28;20466;-69
2023/08/25 09:18:19;;;;;;;45.83;42.77;;;20.80;99.90;;;;;;4926634;29;20591;-69
2023/08/25 09:20:46;;;;;;;44.97;42.37;;;20.80;99.90;;;;;;4927315;29;20827;-70
2023/08/25 09:23:13;;;;;;;43.37;40.67;;;20.70;99.90;;;;;;4930872;29;20455;-70
2023/08/25 09:25:42;;;;;;;49.23;46.17;;;20.80;99.90;;;;;;4927995;29;20972;-69
2023/08/25 09:28:09;;;;;;;49.37;46.50;;;20.70;99.90;;;;;;4933766;29;20823;-70
2023/08/25 09:30:37;;;;;;;44.30;41.60;;;20.70;99.90;;;;;;4930051;29;20530;-70
2023/08/25 09:33:05;;;;;;;43.80;41.00;;;20.80;99.90;;;;;;4925768;29;20832;-68
2023/08/25 09:35:32;;;;;;;45.13;42.63;;;20.90;99.90;;;;;;4927123;29;20453;-69
2023/08/25 09:37:59;;;;;;;42.03;39.60;;;21.00;99.90;;;;;;4931045;29;20480;-70
2023/08/25 09:40:26;;;;;;;39.17;37.00;;;21.10;99.90;;;;;;4930149;28;20455;-70
2023/08/25 09:42:59;;;;;;;30.07;28.47;;;21.20;99.90;;;;;;4925284;29;20482;-71
2023/08/25 09:45:30;;;;;;;23.50;22.50;;;21.40;99.90;;;;;;4925450;29;20924;-71
2023/08/25 09:48:06;;;;;;;23.57;22.20;;;21.70;99.90;;;;;;4932496;29;20545;-72
2023/08/25 09:50:36;;;;;;;21.53;20.30;;;22.00;99.90;;;;;;4928072;29;20858;-72
2023/08/25 09:53:05;;;;;;;19.80;18.90;;;22.40;99.90;;;;;;4930389;28;20437;-72
2023/08/25 09:55:34;;;;;;;20.63;19.53;;;22.70;99.90;;;;;;4926829;29;20438;-72
2023/08/25 09:58:03;;;;;;;21.00;19.80;;;23.10;99.90;;;;;;4933283;29;20455;-72
2023/08/25 10:00:30;;;;;;;19.70;18.60;;;23.60;99.90;;;;;;4936916;28;20531;-72
2023/08/25 10:02:58;;;;;;;18.90;17.80;;;23.80;99.90;;;;;;4927913;29;20836;-72
2023/08/25 10:05:24;;;;;;;19.83;18.93;;;24.00;99.90;;;;;;4931027;29;20583;-72
2023/08/25 10:07:52;;;;;;;19.67;18.60;;;24.20;99.90;;;;;;4924578;29;20946;-72
2023/08/25 10:10:20;;;;;;;19.27;18.23;;;24.30;99.90;;;;;;4930849;29;20963;-72
2023/08/25 10:12:48;;;;;;;20.00;19.00;;;24.60;99.90;;;;;;4947690;28;20473;-72
2023/08/25 10:15:18;;;;;;;20.20;18.93;;;24.60;99.90;;;;;;4941593;28;20461;-72
2023/08/25 10:17:46;;;;;;;19.53;18.60;;;24.40;99.90;;;;;;4930199;29;20517;-73
2023/08/25 10:20:14;;;;;;;19.07;18.00;;;24.30;99.90;;;;;;4935635;29;20540;-73
2023/08/25 10:22:45;;;;;;;18.03;17.00;;;24.30;99.90;;;;;;4935574;29;20492;-73
2023/08/25 10:25:14;;;;;;;17.27;16.37;;;24.20;99.90;;;;;;4935503;29;20441;-72
2023/08/25 10:27:41;;;;;;;18.03;17.33;;;24.30;99.90;;;;;;4935398;29;20453;-72
2023/08/25 10:30:09;;;;;;;18.97;17.87;;;24.50;99.90;;;;;;4935164;29;20474;-72
2023/08/25 10:32:51;;;;;;;17.63;16.70;;;24.40;99.90;;;;;;4935406;29;20460;-72
2023/08/25 10:35:38;;;;;;;18.33;17.33;;;24.30;99.90;;;;;;4935354;29;20541;-72
2023/08/25 10:38:05;;;;;;;18.43;17.27;;;24.30;99.90;;;;;;4935169;29;21034;-72
2023/08/25 10:40:41;;;;;;;18.70;17.77;;;24.20;99.90;;;;;;4935323;29;20457;-72
2023/08/25 10:43:07;;;;;;;17.17;16.43;;;24.30;99.90;;;;;;4935226;29;20528;-72
2023/08/25 10:45:35;;;;;;;18.00;17.10;;;24.20;99.90;;;;;;4935112;29;20464;-73
2023/08/25 10:48:04;;;;;;;17.30;16.30;;;24.30;99.90;;;;;;4935004;29;20454;-72
2023/08/25 10:50:30;;;;;;;17.53;16.73;;;24.20;99.90;;;;;;4935236;29;20456;-73
2023/08/25 10:52:57;;;;;;;16.37;15.57;;;24.30;99.90;;;;;;4935281;29;20458;-73
2023/08/25 10:55:26;;;;;;;16.40;15.70;;;24.40;99.90;;;;;;4934921;29;20450;-72
2023/08/25 10:57:53;;;;;;;16.10;15.20;;;24.60;99.90;;;;;;4934798;29;20445;-73
2023/08/25 11:00:29;;;;;;;17.07;16.17;;;24.80;99.90;;;;;;4934896;29;20827;-73
2023/08/25 11:02:56;;;;;;;16.00;15.30;;;25.00;99.90;;;;;;4934823;29;20525;-73
2023/08/25 11:05:40;;;;;;;15.93;15.20;;;25.30;99.90;;;;;;4934036;29;20516;-73
2023/08/25 11:08:24;;;;;;;15.57;14.60;;;25.50;99.90;;;;;;4934784;29;20885;-72
2023/08/25 11:11:13;;;;;;;15.37;14.77;;;25.70;99.90;;;;;;4934702;29;20537;-73
2023/08/25 11:13:41;;;;;;;18.30;17.40;;;25.80;99.90;;;;;;4943488;29;20459;-73
2023/08/25 11:16:09;;;;;;;15.50;14.80;;;26.00;99.90;;;;;;4951799;28;20821;-74
2023/08/25 11:18:36;;;;;;;15.40;14.70;;;26.10;99.90;;;;;;4934555;29;20485;-73
2023/08/25 11:21:04;;;;;;;15.33;14.73;;;26.30;99.90;;;;;;4934588;29;20449;-73
2023/08/25 11:23:38;;;;;;;15.53;14.90;;;26.20;99.90;;;;;;4951793;28;20492;-72
2023/08/25 11:26:06;;;;;;;15.77;14.93;;;26.00;99.90;;;;;;4953802;28;20444;-71
2023/08/25 11:28:33;;;;;;;15.63;15.00;;;26.00;99.90;;;;;;4948372;28;20488;-71
2023/08/25 11:31:00;;;;;;;15.53;14.93;;;26.00;99.90;;;;;;4953570;28;20856;-72
2023/08/25 11:33:27;;;;;;;15.43;14.73;;;25.90;99.90;;;;;;4953742;28;20456;-71
2023/08/25 11:35:54;;;;;;;14.97;14.37;;;26.10;99.90;;;;;;4953430;28;20456;-72
2023/08/25 11:38:22;;;;;;;15.63;14.83;;;26.20;99.90;;;;;;4953507;28;20452;-72
2023/08/25 11:40:49;;;;;;;16.03;15.13;;;26.30;99.90;;;;;;4953404;28;20464;-72
2023/08/25 11:43:15;;;;;;;15.70;14.83;;;26.30;99.90;;;;;;4953456;28;20493;-72
2023/08/25 11:45:45;;;;;;;15.47;14.87;;;26.10;99.90;;;;;;4953436;28;20449;-71
2023/08/25 11:48:13;;;;;;;14.90;14.30;;;26.00;99.90;;;;;;4953497;28;20511;-72
2023/08/25 11:50:41;;;;;;;14.57;13.87;;;26.00;99.90;;;;;;4940361;28;20449;-71
2023/08/25 11:53:09;;;;;;;15.70;15.10;;;26.00;99.90;;;;;;4934052;29;20940;-75
2023/08/25 11:55:37;;;;;;;15.33;14.73;;;26.00;99.90;;;;;;4936058;29;20461;-74
2023/08/25 11:58:07;;;;;;;16.40;15.70;;;26.10;99.90;;;;;;4940119;28;20453;-74
2023/08/25 12:00:37;;;;;;;16.17;15.50;;;26.10;99.90;;;;;;4939536;28;20460;-74
2023/08/25 12:03:04;;;;;;;16.33;15.43;;;26.20;99.90;;;;;;4952706;28;20520;-75
2023/08/25 12:05:31;;;;;;;15.13;14.50;;;26.50;99.90;;;;;;4949875;28;20468;-74
2023/08/25 12:08:00;;;;;;;15.73;14.90;;;26.70;99.90;;;;;;4943378;28;20456;-75
2023/08/25 12:10:27;;;;;;;15.60;14.87;;;27.10;99.90;;;;;;4946979;28;20457;-74
2023/08/25 12:12:55;;;;;;;16.00;15.30;;;27.20;99.90;;;;;;4936974;28;20932;-75
2023/08/25 12:15:22;;;;;;;16.83;15.93;;;27.30;99.90;;;;;;4936165;28;20956;-75
2023/08/25 12:17:49;;;;;;;16.47;15.67;;;27.30;99.90;;;;;;4945289;28;20475;-74
2023/08/25 12:20:17;;;;;;;15.73;15.03;;;27.20;99.90;;;;;;4939214;29;20449;-75
2023/08/25 12:22:51;;;;;;;16.33;15.53;;;26.90;99.90;;;;;;4933601;29;20855;-74
2023/08/25 12:25:18;;;;;;;16.27;15.47;;;26.80;99.90;;;;;;4933554;29;20548;-74
2023/08/25 12:27:45;;;;;;;16.33;15.63;;;26.70;99.90;;;;;;4935700;29;20967;-73
2023/08/25 12:30:14;;;;;;;15.73;14.83;;;26.60;99.90;;;;;;4941443;28;20528;-74
2023/08/25 12:32:41;;;;;;;16.23;15.30;;;26.60;99.90;;;;;;4946907;28;20449;-74
2023/08/25 12:35:08;;;;;;;15.60;14.67;;;26.70;99.90;;;;;;4943981;28;20488;-74